Hartfield, United Kingdom
Current Conditions -  °F | °C
As of 11:20 PM on Friday 19 Dec 2014 (Local Time) from EGKK Reporting Station
Clear Clear  
Wind Chill:   Ceiling: Unl
Heat Index:   Visibility: 6mi
Dew Point:   Wind: 10mph
Humidity: 87%   Direction: 220°SW
Pressure: 30.24"   Gusts: NA
Location:  51.1°N, 0.11°E
Report Text: EGKK 192320Z 22009KT CAVOK 05/03 Q1024
Loading
Personal Weather Stations






























Interactive Weather Map New forecast layout! Learn more

10-Day Weather Forecast

Advertisements
Track Severe Weather on mobile